Time;durP1;ratioP1;P1;durP2;ratioP2;P2;SDS_P1;SDS_P2;PMS_P1;PMS_P2;Temp;Humidity;BMP_temperature;BMP_pressure;BME280_temperature;BME280_humidity;BME280_pressure;Samples;Min_cycle;Max_cycle;Signal;HPM_P1;HPM_P2
2023/11/29 00:01:50;;;;;;;7.90;5.13;;;;;;;0.23;100.00;97373.72;5072383;28;20223;-76
2023/11/29 00:04:16;;;;;;;10.63;6.37;;;;;;;0.21;100.00;97383.34;5071329;28;20211;-78
2023/11/29 00:06:44;;;;;;;8.13;6.03;;;;;;;0.20;100.00;97370.41;5072324;28;20204;-76
2023/11/29 00:09:11;;;;;;;8.93;5.63;;;;;;;0.18;100.00;97370.47;5072128;28;20214;-77
2023/11/29 00:11:37;;;;;;;8.07;5.60;;;;;;;0.27;100.00;97370.13;5072417;28;20268;-77
2023/11/29 00:14:04;;;;;;;8.33;5.67;;;;;;;0.26;100.00;97357.19;5071533;28;20216;-77
2023/11/29 00:16:31;;;;;;;7.73;5.37;;;;;;;0.23;100.00;97365.06;5072145;28;20211;-77
2023/11/29 00:18:58;;;;;;;8.43;5.17;;;;;;;0.21;100.00;97359.09;5072050;28;20246;-77
2023/11/29 00:21:27;;;;;;;7.60;5.23;;;;;;;0.25;100.00;97355.50;5071834;28;20608;-76
2023/11/29 00:23:55;;;;;;;6.77;4.90;;;;;;;0.21;100.00;97339.19;5071131;28;20207;-76
2023/11/29 00:26:23;;;;;;;6.73;5.13;;;;;;;0.12;100.00;97338.69;5071989;28;20220;-76
2023/11/29 00:28:50;;;;;;;9.00;5.03;;;;;;;0.12;100.00;97333.47;5071752;28;20226;-78
2023/11/29 00:31:17;;;;;;;7.87;5.20;;;;;;;0.07;100.00;97336.28;5071753;28;20232;-76
2023/11/29 00:33:43;;;;;;;8.37;5.37;;;;;;;0.09;100.00;97331.88;5071261;28;20702;-76
2023/11/29 00:36:10;;;;;;;6.87;4.70;;;;;;;0.03;100.00;97329.53;5071646;28;20211;-76
2023/11/29 00:38:36;;;;;;;10.37;6.23;;;;;;;0.03;100.00;97329.53;5071609;28;20218;-76
2023/11/29 00:41:04;;;;;;;9.57;5.80;;;;;;;-0.03;100.00;97322.00;5071716;28;20250;-76
2023/11/29 00:43:31;;;;;;;8.17;5.60;;;;;;;-0.03;100.00;97329.78;5071359;28;20215;-76
2023/11/29 00:45:58;;;;;;;9.47;5.97;;;;;;;0.00;100.00;97329.66;5071100;28;20242;-78
2023/11/29 00:48:24;;;;;;;9.37;6.40;;;;;;;0.01;100.00;97330.50;5072146;28;20215;-78
2023/11/29 00:50:52;;;;;;;8.80;5.90;;;;;;;0.02;100.00;97327.00;5071416;28;20218;-76
2023/11/29 00:53:19;;;;;;;9.07;6.33;;;;;;;0.06;100.00;97324.22;5071339;28;20208;-78
2023/11/29 00:55:45;;;;;;;8.67;6.37;;;;;;;0.01;100.00;97320.13;5070977;28;20204;-78
2023/11/29 00:58:13;;;;;;;8.10;5.80;;;;;;;-0.04;100.00;97316.84;5071593;28;20206;-76
2023/11/29 01:00:39;;;;;;;8.10;5.87;;;;;;;-0.06;100.00;97319.50;5071237;28;20218;-76
2023/11/29 01:03:06;;;;;;;9.53;6.00;;;;;;;-0.08;100.00;97324.84;5071178;28;20210;-78
2023/11/29 01:05:32;;;;;;;9.23;6.00;;;;;;;-0.14;100.00;97325.09;5070382;28;20748;-76
2023/11/29 01:07:59;;;;;;;11.67;6.77;;;;;;;-0.14;100.00;97325.09;5071454;28;20206;-76
2023/11/29 01:10:25;;;;;;;10.43;6.87;;;;;;;-0.13;100.00;97337.16;5071114;28;20704;-78
2023/11/29 01:12:52;;;;;;;11.17;6.90;;;;;;;-0.11;100.00;97329.22;5070897;28;20246;-77
2023/11/29 01:15:20;;;;;;;10.33;6.53;;;;;;;-0.05;100.00;97331.56;5070667;28;20211;-76
2023/11/29 01:17:46;;;;;;;9.97;6.47;;;;;;;-0.07;100.00;97328.22;5071215;28;20215;-77
2023/11/29 01:20:13;;;;;;;11.23;6.43;;;;;;;-0.05;100.00;97331.56;5071069;28;20214;-77
2023/11/29 01:22:39;;;;;;;12.37;7.33;;;;;;;-0.12;100.00;97319.75;5070777;28;20237;-76
2023/11/29 01:25:07;;;;;;;10.70;6.73;;;;;;;-0.13;100.00;97323.25;5070803;28;20302;-76
2023/11/29 01:27:33;;;;;;;10.80;6.90;;;;;;;-0.16;100.00;97323.38;5071248;28;20207;-78
2023/11/29 01:30:02;;;;;;;13.43;8.03;;;;;;;-0.18;100.00;97328.69;5071339;28;20210;-77
2023/11/29 01:32:30;;;;;;;11.97;7.27;;;;;;;-0.16;100.00;97328.56;5070901;28;20270;-78
2023/11/29 01:34:56;;;;;;;10.77;6.63;;;;;;;-0.14;100.00;97332.88;5072151;28;20221;-75
2023/11/29 01:37:23;;;;;;;10.83;6.80;;;;;;;-0.18;100.00;97339.09;5075290;28;20207;-76
2023/11/29 01:39:49;;;;;;;11.87;7.07;;;;;;;-0.20;100.00;97340.91;5075086;28;20230;-76
2023/11/29 01:42:16;;;;;;;10.87;7.07;;;;;;;-0.22;100.00;97341.78;5074672;28;20721;-77
2023/11/29 01:44:42;;;;;;;12.33;7.60;;;;;;;-0.22;100.00;97339.19;5074558;28;20263;-75
2023/11/29 01:47:11;;;;;;;10.80;6.67;;;;;;;-0.23;100.00;97333.22;5074937;28;20591;-76
2023/11/29 01:49:40;;;;;;;12.57;6.90;;;;;;;-0.24;100.00;97332.41;5074699;28;20214;-76
2023/11/29 01:52:08;;;;;;;11.07;6.87;;;;;;;-0.28;100.00;97327.34;5074798;28;20235;-76
2023/11/29 01:54:34;;;;;;;11.10;7.20;;;;;;;-0.31;100.00;97333.50;5074234;28;20212;-76
2023/11/29 01:57:01;;;;;;;12.30;7.23;;;;;;;-0.35;100.00;97325.91;5074825;28;20221;-76
2023/11/29 01:59:28;;;;;;;12.00;7.40;;;;;;;-0.33;100.00;97332.75;5073936;28;20215;-77
2023/11/29 02:01:55;;;;;;;12.93;7.87;;;;;;;-0.34;100.00;97331.06;5074394;28;20280;-76
2023/11/29 02:04:21;;;;;;;10.53;7.37;;;;;;;-0.32;100.00;97324.03;5073962;28;20213;-76
2023/11/29 02:06:49;;;;;;;12.13;7.90;;;;;;;-0.35;100.00;97320.72;5074618;28;20211;-78
2023/11/29 02:09:16;;;;;;;12.33;7.73;;;;;;;-0.33;100.00;97329.31;5074487;28;20211;-76
2023/11/29 02:11:44;;;;;;;12.90;8.43;;;;;;;-0.45;100.00;97322.00;5074299;28;20234;-76
2023/11/29 02:14:10;;;;;;;12.47;7.60;;;;;;;-0.50;100.00;97326.53;5073848;28;20575;-77
2023/11/29 02:16:37;;;;;;;11.47;7.53;;;;;;;-0.57;100.00;97314.69;5074214;28;20693;-77
2023/11/29 02:19:03;;;;;;;11.00;7.17;;;;;;;-0.62;100.00;97314.03;5074664;28;20207;-76
2023/11/29 02:21:30;;;;;;;12.63;7.93;;;;;;;-0.63;100.00;97314.94;5074246;28;20230;-76
2023/11/29 02:24:03;;;;;;;10.67;6.67;;;;;;;-0.71;100.00;97309.16;5073719;28;20530;-76
2023/11/29 02:26:31;;;;;;;13.30;7.33;;;;;;;-0.83;100.00;97313.06;5074089;28;20218;-76
2023/11/29 02:28:57;;;;;;;12.60;7.13;;;;;;;-0.82;100.00;97304.38;5073788;28;20207;-77
2023/11/29 02:31:24;;;;;;;12.60;6.77;;;;;;;-0.88;100.00;97303.75;5074083;28;20238;-78
2023/11/29 02:33:51;;;;;;;11.13;6.87;;;;;;;-0.93;100.00;97305.72;5073449;28;20207;-77
2023/11/29 02:36:18;;;;;;;11.47;6.83;;;;;;;-0.97;100.00;97306.72;5073976;28;20214;-76
2023/11/29 02:38:44;;;;;;;10.87;6.83;;;;;;;-1.05;100.00;97308.75;5073944;28;20207;-76
2023/11/29 02:41:11;;;;;;;14.17;8.43;;;;;;;-1.15;100.00;97304.78;5073699;28;20725;-77
2023/11/29 02:43:38;;;;;;;9.67;6.60;;;;;;;-1.30;100.00;97306.19;5072638;28;20223;-77
2023/11/29 02:46:05;;;;;;;10.80;6.13;;;;;;;-1.35;100.00;97302.09;5072527;28;20217;-76
2023/11/29 02:48:32;;;;;;;10.87;7.10;;;;;;;-1.46;100.00;97299.03;5073907;28;20204;-77
2023/11/29 02:50:58;;;;;;;12.23;7.10;;;;;;;-1.52;100.00;97307.00;5073704;28;20231;-76
2023/11/29 02:53:26;;;;;;;9.57;6.00;;;;;;;-1.57;100.00;97306.31;5074258;28;20231;-76
2023/11/29 02:55:52;;;;;;;13.53;7.77;;;;;;;-1.67;100.00;97307.56;5074304;28;20241;-76
2023/11/29 02:58:18;;;;;;;13.33;7.17;;;;;;;-1.65;100.00;97306.56;5075206;28;20218;-76
2023/11/29 03:00:46;;;;;;;13.03;7.67;;;;;;;-1.64;100.00;97304.84;5074841;28;20617;-75
2023/11/29 03:03:13;;;;;;;14.30;7.53;;;;;;;-1.63;100.00;97302.19;5075142;28;20210;-77
2023/11/29 03:05:40;;;;;;;12.13;6.90;;;;;;;-1.63;100.00;97303.94;5072917;28;20221;-77
2023/11/29 03:08:07;;;;;;;14.10;7.67;;;;;;;-1.64;100.00;97310.88;5073436;28;20238;-77
2023/11/29 03:10:34;;;;;;;11.70;7.40;;;;;;;-1.59;100.00;97310.72;5073298;28;20232;-77
2023/11/29 03:13:00;;;;;;;12.63;7.43;;;;;;;-1.57;100.00;97306.31;5072961;28;20252;-77
2023/11/29 03:15:27;;;;;;;12.83;7.80;;;;;;;-1.40;100.00;97306.56;5073018;28;20230;-76
2023/11/29 03:17:55;;;;;;;13.30;7.73;;;;;;;-1.34;100.00;97299.44;5073259;28;20213;-76
2023/11/29 03:20:21;;;;;;;12.93;8.00;;;;;;;-1.22;100.00;97296.38;5073138;28;20670;-76
2023/11/29 03:22:48;;;;;;;12.30;7.93;;;;;;;-1.14;100.00;97296.97;5072921;28;20228;-76
2023/11/29 03:25:14;;;;;;;12.90;7.10;;;;;;;-1.06;100.00;97300.13;5072513;28;20210;-77
2023/11/29 03:27:41;;;;;;;13.70;7.33;;;;;;;-0.97;100.00;97302.38;5072900;28;20211;-76
2023/11/29 03:30:08;;;;;;;13.00;8.10;;;;;;;-0.90;100.00;97295.19;5072875;28;20217;-77
2023/11/29 03:32:34;;;;;;;13.23;7.27;;;;;;;-0.85;100.00;97283.78;5072720;28;20238;-77
2023/11/29 03:35:02;;;;;;;12.73;7.50;;;;;;;-0.68;100.00;97290.91;5072433;28;20210;-77
2023/11/29 03:37:29;;;;;;;11.40;6.37;;;;;;;-0.65;100.00;97290.78;5072774;28;20211;-77
2023/11/29 03:39:55;;;;;;;10.27;6.10;;;;;;;-0.66;100.00;97279.56;5072617;28;20219;-77
2023/11/29 03:42:22;;;;;;;8.53;5.37;;;;;;;-0.61;100.00;97287.16;5072584;28;20239;-77
2023/11/29 03:44:48;;;;;;;9.80;5.27;;;;;;;-0.61;100.00;97276.78;5072279;28;20215;-76
2023/11/29 03:47:15;;;;;;;8.27;5.40;;;;;;;-0.69;100.00;97278.84;5072715;28;20581;-77
2023/11/29 03:49:41;;;;;;;9.90;5.40;;;;;;;-0.82;100.00;97269.81;5072680;28;20217;-76
2023/11/29 03:52:09;;;;;;;7.80;4.50;;;;;;;-0.98;100.00;97279.09;5072297;28;20725;-77
2023/11/29 03:54:37;;;;;;;7.53;5.20;;;;;;;-1.09;100.00;97276.91;5071804;28;20391;-77
2023/11/29 03:57:04;;;;;;;8.47;5.10;;;;;;;-1.22;100.00;97273.06;5072157;28;20320;-77
2023/11/29 03:59:31;;;;;;;11.00;5.37;;;;;;;-1.34;100.00;97267.47;5072331;28;20751;-77
2023/11/29 04:01:57;;;;;;;7.77;4.47;;;;;;;-1.45;100.00;97267.03;5072567;28;20274;-77
2023/11/29 04:04:24;;;;;;;8.40;5.47;;;;;;;-1.47;100.00;97261.06;5071809;28;20571;-76
2023/11/29 04:06:50;;;;;;;9.80;5.40;;;;;;;-1.54;100.00;97255.25;5072221;28;20210;-77
2023/11/29 04:09:17;;;;;;;9.07;5.20;;;;;;;-1.61;100.00;97255.53;5072187;28;20685;-77
2023/11/29 04:11:45;;;;;;;8.33;5.00;;;;;;;-1.62;100.00;97257.25;5072094;28;20238;-76
2023/11/29 04:14:11;;;;;;;8.67;5.30;;;;;;;-1.62;100.00;97251.22;5071388;28;20204;-77
2023/11/29 04:16:38;;;;;;;8.23;4.80;;;;;;;-1.56;100.00;97245.81;5072010;28;20335;-76
2023/11/29 04:19:04;;;;;;;10.00;5.23;;;;;;;-1.54;100.00;97249.22;5071994;28;20216;-77
2023/11/29 04:21:32;;;;;;;8.37;4.50;;;;;;;-1.64;100.00;97248.72;5071726;28;20237;-77
2023/11/29 04:23:59;;;;;;;8.20;4.93;;;;;;;-1.68;100.00;97241.94;5071353;28;20206;-76
2023/11/29 04:26:30;;;;;;;8.30;4.77;;;;;;;-1.66;100.00;97240.13;5072024;28;20214;-78
2023/11/29 04:28:56;;;;;;;8.27;5.03;;;;;;;-1.60;100.00;97239.91;5071936;28;20221;-76
2023/11/29 04:31:24;;;;;;;7.07;4.87;;;;;;;-1.68;100.00;97235.91;5071625;28;20233;-76
2023/11/29 04:33:50;;;;;;;7.77;4.23;;;;;;;-1.67;100.00;97242.81;5071031;28;20326;-76
2023/11/29 04:36:17;;;;;;;7.57;4.57;;;;;;;-1.72;100.00;97242.09;5071744;28;20217;-77
2023/11/29 04:38:43;;;;;;;10.03;6.17;;;;;;;-1.69;100.00;97234.22;5071677;28;20661;-77
2023/11/29 04:41:10;;;;;;;9.27;4.93;;;;;;;-1.64;100.00;97237.50;5071612;28;20599;-77
2023/11/29 04:43:38;;;;;;;8.30;4.73;;;;;;;-1.58;100.00;97232.09;5070705;28;20211;-77
2023/11/29 04:46:05;;;;;;;9.73;5.10;;;;;;;-1.53;100.00;97237.97;5071578;28;20210;-76
2023/11/29 04:48:31;;;;;;;8.63;4.57;;;;;;;-1.46;100.00;97229.06;5071384;28;20219;-77
2023/11/29 04:50:57;;;;;;;7.97;4.73;;;;;;;-1.37;100.00;97226.13;5071586;28;20225;-78
2023/11/29 04:53:24;;;;;;;9.20;4.83;;;;;;;-1.36;100.00;97222.66;5071204;28;20230;-75
2023/11/29 04:55:52;;;;;;;9.53;5.37;;;;;;;-1.30;100.00;97222.44;5070954;28;20218;-76
2023/11/29 04:58:19;;;;;;;8.23;5.20;;;;;;;-1.29;100.00;97218.94;5071297;28;20256;-76
2023/11/29 05:00:46;;;;;;;9.70;5.73;;;;;;;-1.26;100.00;97229.16;5071655;28;20220;-76
2023/11/29 05:03:14;;;;;;;8.97;5.57;;;;;;;-1.19;100.00;97228.88;5071053;28;20200;-76
2023/11/29 05:05:40;;;;;;;10.80;5.90;;;;;;;-1.10;100.00;97222.50;5070885;28;20380;-77
2023/11/29 05:08:07;;;;;;;8.23;5.27;;;;;;;-1.06;100.00;97229.28;5071058;28;20209;-76
2023/11/29 05:10:33;;;;;;;9.63;5.40;;;;;;;-1.00;100.00;97221.28;5070635;28;20211;-76
2023/11/29 05:13:00;;;;;;;7.80;4.77;;;;;;;-0.92;100.00;97224.41;5070896;28;20245;-78
2023/11/29 05:15:26;;;;;;;8.60;4.80;;;;;;;-0.85;100.00;97215.47;5070625;28;20221;-76
2023/11/29 05:17:55;;;;;;;7.73;4.33;;;;;;;-0.88;100.00;97221.63;5070981;28;20434;-76
2023/11/29 05:20:21;;;;;;;8.43;5.27;;;;;;;-0.85;100.00;97221.53;5070902;28;20637;-76
2023/11/29 05:22:48;;;;;;;9.07;5.30;;;;;;;-0.76;100.00;97225.47;5071035;28;20230;-77
2023/11/29 05:25:14;;;;;;;8.90;5.40;;;;;;;-0.67;100.00;97217.34;5070558;28;20208;-76
2023/11/29 05:27:41;;;;;;;8.37;5.33;;;;;;;-0.66;100.00;97217.31;5071094;28;20217;-78
2023/11/29 05:30:08;;;;;;;7.13;4.27;;;;;;;-0.61;100.00;97214.50;5070786;28;20218;-77
2023/11/29 05:32:34;;;;;;;7.10;4.80;;;;;;;-0.60;100.00;97209.28;5070588;28;20262;-76
2023/11/29 05:35:02;;;;;;;7.27;4.80;;;;;;;-0.51;100.00;97215.84;5070279;28;20218;-77
2023/11/29 05:37:29;;;;;;;6.27;4.13;;;;;;;-0.48;100.00;97207.91;5070971;28;20685;-77
2023/11/29 05:39:56;;;;;;;8.03;4.87;;;;;;;-0.51;100.00;97206.28;5071027;28;20207;-78
2023/11/29 05:42:23;;;;;;;8.63;4.87;;;;;;;-0.50;100.00;97204.56;5070542;28;20725;-76
2023/11/29 05:44:54;;;;;;;6.80;4.67;;;;;;;-0.50;100.00;97202.78;5070503;28;20211;-78
2023/11/29 05:47:21;;;;;;;7.40;4.73;;;;;;;-0.54;100.00;97200.38;5071157;28;20214;-77
2023/11/29 05:49:47;;;;;;;8.67;5.30;;;;;;;-0.52;100.00;97199.41;5071147;28;20203;-76
2023/11/29 05:52:15;;;;;;;9.00;5.25;;;;;;;-0.48;100.00;97200.13;5070705;28;20242;-77
2023/11/29 05:54:42;;;;;;;9.07;5.40;;;;;;;-0.46;100.00;97198.31;5070230;28;20230;-76
2023/11/29 05:57:08;;;;;;;7.17;4.57;;;;;;;-0.48;100.00;97192.34;5071113;28;20211;-76
2023/11/29 05:59:36;;;;;;;7.73;4.87;;;;;;;-0.46;100.00;97193.97;5070521;28;20219;-78
2023/11/29 06:02:05;;;;;;;7.20;4.70;;;;;;;-0.45;100.00;97194.84;5070551;28;20411;-76
2023/11/29 06:04:31;;;;;;;8.27;5.00;;;;;;;-0.40;100.00;97192.88;5069943;28;20207;-76
2023/11/29 06:06:58;;;;;;;7.80;5.03;;;;;;;-0.39;100.00;97189.41;5070860;28;20203;-76
2023/11/29 06:09:28;;;;;;;7.30;4.67;;;;;;;-0.35;100.00;97197.00;5070743;28;20217;-76
2023/11/29 06:11:55;;;;;;;7.57;5.00;;;;;;;-0.29;100.00;97203.66;5070306;28;20231;-78
2023/11/29 06:14:22;;;;;;;8.53;5.00;;;;;;;-0.31;100.00;97200.31;5069843;28;20733;-77
2023/11/29 06:16:49;;;;;;;8.13;4.47;;;;;;;-0.30;100.00;97197.66;5071141;28;20265;-77
2023/11/29 06:19:15;;;;;;;9.90;4.60;;;;;;;-0.28;100.00;97192.38;5070649;28;20203;-78
2023/11/29 06:21:42;;;;;;;8.93;5.40;;;;;;;-0.28;100.00;97199.25;5073400;28;20328;-77
2023/11/29 06:24:09;;;;;;;8.57;5.50;;;;;;;-0.25;100.00;97197.44;5073870;28;20235;-77
2023/11/29 06:26:38;;;;;;;9.10;5.30;;;;;;;-0.26;100.00;97206.16;5074132;28;20221;-77
2023/11/29 06:29:04;;;;;;;10.47;6.00;;;;;;;-0.18;100.00;97209.25;5074233;28;20215;-76
2023/11/29 06:31:31;;;;;;;10.97;5.33;;;;;;;-0.18;100.00;97211.88;5074085;28;20297;-75
2023/11/29 06:33:57;;;;;;;9.47;5.50;;;;;;;-0.18;100.00;97217.06;5073383;28;20242;-76
2023/11/29 06:36:24;;;;;;;8.90;5.33;;;;;;;-0.17;100.00;97210.94;5073892;28;20234;-76
2023/11/29 06:38:52;;;;;;;9.37;4.93;;;;;;;-0.16;100.00;97216.91;5074002;28;20206;-77
2023/11/29 06:41:19;;;;;;;8.97;5.00;;;;;;;-0.11;100.00;97212.38;5074019;28;20254;-76
2023/11/29 06:43:47;;;;;;;7.57;5.07;;;;;;;-0.08;100.00;97215.78;5073125;28;20221;-78
2023/11/29 06:46:13;;;;;;;8.87;5.30;;;;;;;-0.03;100.00;97210.31;5074008;28;20215;-76
2023/11/29 06:48:40;;;;;;;8.73;5.30;;;;;;;-0.07;100.00;97211.34;5073751;28;20214;-76
2023/11/29 06:51:07;;;;;;;10.27;5.57;;;;;;;-0.08;100.00;97210.56;5073648;28;20227;-78
2023/11/29 06:53:35;;;;;;;7.90;5.30;;;;;;;-0.08;100.00;97208.81;5073340;28;20250;-78
2023/11/29 06:56:02;;;;;;;6.37;5.10;;;;;;;-0.08;100.00;97214.00;5073512;28;20203;-76
2023/11/29 06:58:29;;;;;;;8.57;5.13;;;;;;;-0.08;100.00;97215.78;5073318;28;20562;-77
2023/11/29 07:00:56;;;;;;;9.40;6.10;;;;;;;-0.13;100.00;97211.59;5073374;28;20203;-78
2023/11/29 07:03:26;;;;;;;11.40;5.87;;;;;;;-0.11;100.00;97206.34;5073214;28;20619;-76
2023/11/29 07:05:52;;;;;;;8.43;5.23;;;;;;;-0.13;100.00;97205.56;5072835;28;20260;-76
2023/11/29 07:08:19;;;;;;;8.60;5.50;;;;;;;-0.12;100.00;97213.28;5071993;28;20709;-78
2023/11/29 07:10:45;;;;;;;13.33;6.13;;;;;;;-0.08;100.00;97200.19;5073141;28;20222;-77
2023/11/29 07:13:13;;;;;;;8.73;5.97;;;;;;;-0.04;100.00;97203.41;5072932;28;20231;-77
2023/11/29 07:15:39;;;;;;;8.53;5.40;;;;;;;0.07;100.00;97206.41;5072774;28;20646;-78
2023/11/29 07:18:07;;;;;;;8.33;4.97;;;;;;;-0.07;100.00;97187.97;5073393;28;20209;-76
2023/11/29 07:20:34;;;;;;;10.77;6.33;;;;;;;-0.19;100.00;97194.59;5072901;28;20230;-77
2023/11/29 07:23:00;;;;;;;7.97;5.00;;;;;;;-0.23;100.00;97195.63;5073175;28;20726;-77
2023/11/29 07:25:27;;;;;;;10.67;5.40;;;;;;;-0.26;100.00;97206.16;5072502;28;20303;-77
2023/11/29 07:27:54;;;;;;;9.97;5.10;;;;;;;-0.22;100.00;97199.91;5073236;28;20614;-76
2023/11/29 07:30:21;;;;;;;9.20;5.77;;;;;;;-0.11;100.00;97207.19;5074193;28;20234;-78
2023/11/29 07:32:47;;;;;;;9.40;5.27;;;;;;;-0.05;100.00;97206.91;5073113;28;20288;-78
2023/11/29 07:35:16;;;;;;;7.43;4.97;;;;;;;-0.01;100.00;97211.09;5066309;28;20209;-77
2023/11/29 07:37:44;;;;;;;9.73;6.00;;;;;;;0.02;100.00;97202.31;5052972;28;20243;-77
2023/11/29 07:40:11;;;;;;;7.73;4.87;;;;;;;0.04;100.00;97203.94;5053184;28;20212;-77
2023/11/29 07:42:38;;;;;;;11.50;6.40;;;;;;;0.11;100.00;97200.19;5052386;28;20240;-77
2023/11/29 07:45:06;;;;;;;8.27;4.90;;;;;;;0.06;100.00;97194.34;5052420;28;20208;-78
2023/11/29 07:47:33;;;;;;;7.17;4.80;;;;;;;0.07;100.00;97196.00;5052994;28;20208;-76
2023/11/29 07:49:59;;;;;;;9.20;5.50;;;;;;;0.16;100.00;97193.03;5052820;28;20215;-77
2023/11/29 07:52:27;;;;;;;8.20;5.00;;;;;;;0.23;100.00;97186.66;5052671;28;20603;-78
2023/11/29 07:54:53;;;;;;;8.90;5.70;;;;;;;0.34;100.00;97183.59;5052830;28;20228;-78
2023/11/29 07:57:20;;;;;;;8.47;5.63;;;;;;;0.38;100.00;97180.78;5052194;28;20218;-77
2023/11/29 07:59:46;;;;;;;6.63;4.70;;;;;;;0.45;100.00;97186.56;5052428;28;20590;-76
2023/11/29 08:02:14;;;;;;;8.50;5.40;;;;;;;0.44;100.00;97184.88;5051489;28;20236;-78
2023/11/29 08:04:40;;;;;;;6.77;4.73;;;;;;;0.51;100.00;97184.50;5050078;28;20204;-75
2023/11/29 08:07:06;;;;;;;7.27;4.87;;;;;;;0.63;100.00;97185.75;5051923;28;20249;-76
2023/11/29 08:09:34;;;;;;;6.23;4.63;;;;;;;0.65;100.00;97189.97;5052737;28;20227;-78
2023/11/29 08:12:10;;;;;;;7.57;4.93;;;;;;;0.66;100.00;97176.03;5051423;28;20250;-77
2023/11/29 08:14:36;;;;;;;7.80;4.43;;;;;;;0.71;100.00;97179.28;5051158;28;20227;-78
2023/11/29 08:17:03;;;;;;;7.23;4.80;;;;;;;0.77;100.00;97183.34;5054481;28;20258;-78
2023/11/29 08:19:30;;;;;;;7.53;4.93;;;;;;;0.77;100.00;97189.41;5053626;28;20212;-78
2023/11/29 08:21:56;;;;;;;7.10;4.43;;;;;;;0.81;100.00;97185.72;5054932;28;20228;-81
2023/11/29 08:24:22;;;;;;;6.30;4.00;;;;;;;0.87;100.00;97185.44;5054132;28;20200;-78
2023/11/29 08:26:50;;;;;;;8.33;4.23;;;;;;;0.87;100.00;97182.03;5053526;28;20203;-78
2023/11/29 08:29:17;;;;;;;5.37;4.27;;;;;;;0.89;100.00;97185.38;5053798;28;20254;-78
2023/11/29 08:31:43;;;;;;;5.87;3.93;;;;;;;0.96;100.00;97190.25;5053672;28;20232;-79
2023/11/29 08:34:10;;;;;;;5.73;4.00;;;;;;;1.05;100.00;97182.00;5051715;28;20230;-79
2023/11/29 08:36:36;;;;;;;5.83;4.13;;;;;;;1.00;100.00;97178.75;5053396;28;20208;-79
2023/11/29 08:39:03;;;;;;;6.87;4.40;;;;;;;0.99;100.00;97171.88;5053435;28;20211;-81
2023/11/29 08:41:29;;;;;;;5.60;3.77;;;;;;;1.02;100.00;97174.34;5052444;28;20232;-81
2023/11/29 08:43:57;;;;;;;5.47;3.77;;;;;;;1.16;100.00;97173.72;5051763;28;20222;-78
2023/11/29 08:46:23;;;;;;;5.77;3.73;;;;;;;1.20;100.00;97163.06;5053131;28;20216;-80
2023/11/29 08:48:50;;;;;;;5.33;3.67;;;;;;;1.25;100.00;97155.03;5052455;28;20211;-80
2023/11/29 08:51:17;;;;;;;5.80;4.03;;;;;;;1.37;100.00;97157.91;5053202;28;20659;-79
2023/11/29 08:53:43;;;;;;;5.10;3.73;;;;;;;1.37;100.00;97150.09;5052419;28;20600;-79
2023/11/29 08:56:15;;;;;;;9.87;3.93;;;;;;;1.42;100.00;97166.31;5052572;28;20312;-79
2023/11/29 08:58:41;;;;;;;33.53;7.47;;;;;;;1.49;100.00;97154.72;5052210;28;20212;-79
2023/11/29 09:01:11;;;;;;;14.43;5.40;;;;;;;1.51;100.00;97152.84;5052979;28;20239;-81
2023/11/29 09:03:38;;;;;;;18.07;4.93;;;;;;;1.55;100.00;97153.56;5051297;28;20206;-79
2023/11/29 09:06:04;;;;;;;13.40;5.03;;;;;;;1.67;100.00;97148.56;5052834;28;20726;-78
2023/11/29 09:08:31;;;;;;;6.70;3.37;;;;;;;1.64;100.00;97140.91;5052616;28;20214;-79
2023/11/29 09:10:57;;;;;;;4.00;3.20;;;;;;;1.65;100.00;97133.97;5051947;28;20592;-79
2023/11/29 09:13:24;;;;;;;4.17;3.17;;;;;;;1.66;100.00;97136.47;5051309;28;20251;-80
2023/11/29 09:15:50;;;;;;;5.20;3.37;;;;;;;1.72;100.00;97138.75;5051909;28;20237;-80
2023/11/29 09:18:18;;;;;;;4.43;3.30;;;;;;;1.73;100.00;97134.41;5050920;28;20532;-80
2023/11/29 09:20:45;;;;;;;4.70;2.80;;;;;;;1.75;100.00;97141.22;5053087;28;20212;-80
2023/11/29 09:23:11;;;;;;;4.57;3.75;;;;;;;1.82;100.00;97147.81;5053204;28;20481;-82
2023/11/29 09:25:38;;;;;;;4.27;3.00;;;;;;;1.86;100.00;97154.56;5051790;28;20310;-82
2023/11/29 09:28:06;;;;;;;4.07;3.13;;;;;;;1.83;100.00;97144.28;5053803;28;20208;-86
2023/11/29 09:30:33;;;;;;;3.30;2.80;;;;;;;1.88;100.00;97147.50;5057488;28;20208;-79
2023/11/29 09:32:59;;;;;;;5.13;2.70;;;;;;;1.90;100.00;97137.84;5057722;28;20224;-80
2023/11/29 09:35:27;;;;;;;4.40;3.50;;;;;;;1.89;100.00;97141.38;5053502;28;20239;-79
2023/11/29 09:37:53;;;;;;;3.83;3.00;;;;;;;1.88;100.00;97137.09;5053643;28;20206;-79
2023/11/29 09:40:20;;;;;;;4.63;3.10;;;;;;;1.90;100.00;97139.63;5054454;28;20208;-78
2023/11/29 09:42:47;;;;;;;3.63;2.87;;;;;;;1.95;100.00;97138.44;5053317;28;20236;-81
2023/11/29 09:45:22;;;;;;;5.93;2.80;;;;;;;1.96;100.00;97132.31;5053362;28;20203;-78
2023/11/29 09:47:49;;;;;;;3.70;2.97;;;;;;;1.99;100.00;97129.56;5053761;28;20207;-78
2023/11/29 09:50:17;;;;;;;3.50;2.60;;;;;;;2.03;100.00;97136.28;5054607;28;20212;-79
2023/11/29 09:52:45;;;;;;;4.40;2.80;;;;;;;2.04;100.00;97131.94;5053746;28;20227;-79
2023/11/29 09:55:11;;;;;;;22.70;5.40;;;;;;;2.03;100.00;97141.50;5054957;28;20235;-80
2023/11/29 09:57:38;;;;;;;6.17;3.20;;;;;;;2.10;100.00;97148.09;5058315;28;20210;-80
2023/11/29 10:00:08;;;;;;;3.90;2.97;;;;;;;2.12;100.00;97141.03;5057837;28;20230;-80
2023/11/29 10:02:35;;;;;;;8.50;3.37;;;;;;;2.10;100.00;97147.25;5058892;28;20254;-80
2023/11/29 10:05:02;;;;;;;10.73;3.60;;;;;;;2.15;100.00;97148.69;5057978;28;20208;-79
2023/11/29 10:07:29;;;;;;;4.53;3.07;;;;;;;2.08;100.00;97149.09;5057723;28;20212;-79
2023/11/29 10:09:59;;;;;;;3.07;2.67;;;;;;;2.18;99.92;97139.88;5057732;28;20212;-79
2023/11/29 10:12:26;;;;;;;9.93;3.70;;;;;;;2.14;100.00;97143.56;5057283;28;20358;-79
2023/11/29 10:14:54;;;;;;;3.90;2.87;;;;;;;2.18;99.18;97129.44;5055991;28;20228;-77
2023/11/29 10:17:21;;;;;;;4.13;2.87;;;;;;;2.24;99.15;97123.91;5055263;28;20215;-78
2023/11/29 10:19:47;;;;;;;3.23;2.40;;;;;;;2.27;97.86;97124.59;5057851;28;20212;-79
2023/11/29 10:22:15;;;;;;;10.57;3.80;;;;;;;2.38;98.33;97127.47;5059277;28;20228;-79
2023/11/29 10:24:42;;;;;;;34.87;6.37;;;;;;;2.47;99.05;97121.78;5058244;28;20204;-79
2023/11/29 10:27:10;;;;;;;4.23;2.87;;;;;;;2.57;98.59;97117.75;5058338;28;20535;-79
2023/11/29 10:29:37;;;;;;;2.97;2.53;;;;;;;2.61;97.69;97116.66;5058685;28;20211;-79
2023/11/29 10:32:05;;;;;;;4.67;2.87;;;;;;;2.62;95.01;97101.84;5058296;28;20238;-79
2023/11/29 10:34:34;;;;;;;5.57;2.93;;;;;;;2.63;93.24;97096.56;5057745;28;20698;-79
2023/11/29 10:37:03;;;;;;;4.70;2.97;;;;;;;2.72;91.40;97095.22;5058122;28;20212;-80
2023/11/29 10:39:31;;;;;;;3.63;2.73;;;;;;;2.72;91.79;97096.06;5058864;28;20287;-80
2023/11/29 10:41:59;;;;;;;6.70;2.73;;;;;;;2.67;92.98;97103.31;5058328;28;20314;-80
2023/11/29 10:44:30;;;;;;;4.57;3.03;;;;;;;2.53;94.86;97105.81;5057598;28;20216;-80
2023/11/29 10:47:03;;;;;;;3.33;2.80;;;;;;;2.56;96.38;97108.25;5057406;28;20212;-80
2023/11/29 10:49:34;;;;;;;4.30;3.00;;;;;;;2.60;98.03;97111.53;5059365;28;20685;-81
2023/11/29 10:52:01;;;;;;;4.50;3.70;;;;;;;2.56;99.88;97115.25;5057948;28;20439;-81
2023/11/29 10:54:29;;;;;;;3.37;2.63;;;;;;;2.59;100.00;97118.53;5056466;28;20493;-82
2023/11/29 10:56:56;;;;;;;4.50;3.40;;;;;;;2.60;100.00;97109.78;5057863;28;20300;-80
2023/11/29 10:59:25;;;;;;;4.00;3.38;;;;;;;2.65;100.00;97115.59;5055077;28;20436;-81
2023/11/29 11:01:58;;;;;;;4.27;3.40;;;;;;;2.65;100.00;97114.75;5057297;28;20224;-80
2023/11/29 11:04:30;;;;;;;3.87;3.03;;;;;;;2.67;100.00;97107.66;5057090;28;20208;-82
2023/11/29 11:06:57;;;;;;;3.43;2.67;;;;;;;2.58;100.00;97106.38;5057297;28;20219;-82
2023/11/29 11:09:35;;;;;;;4.53;2.87;;;;;;;2.62;100.00;97107.06;5057834;28;20242;-81
2023/11/29 11:12:03;;;;;;;6.60;3.00;;;;;;;2.68;99.98;97099.75;5058379;28;20742;-81
2023/11/29 11:14:38;;;;;;;3.57;2.93;;;;;;;2.64;98.92;97087.81;5058835;28;20740;-81
2023/11/29 11:17:09;;;;;;;4.40;2.93;;;;;;;2.72;98.48;97074.34;5059542;28;20212;-81
2023/11/29 11:19:37;;;;;;;3.23;2.53;;;;;;;2.78;97.12;97072.25;5061475;28;20270;-82
2023/11/29 11:22:07;;;;;;;4.50;2.67;;;;;;;2.84;96.08;97078.88;5061015;28;20228;-81
2023/11/29 11:24:59;;;;;;;3.90;2.80;;;;;;;2.91;96.24;97073.25;5061003;28;20204;-81
2023/11/29 11:27:29;;;;;;;3.13;2.50;;;;;;;2.90;94.94;97057.69;5060247;28;20208;-81